Terminal Aerodrome Forecast
Issued by NWS Miami, FL

Home | Current Version | Previous Version | Text Only | Print | Product List | Glossary On
Versions: 1 2 3 4 5 6 7 8 9 10 11 12 13 14 15 16 17 18 19 20 21 22 23 24 25 26 27 28 29 30 31 32
000
FTUS42 KMFL 240924 AAA
TAFPBI
TAF AMD
KPBI 240924Z 2409/2506 05012KT P6SM BKN035 OVC060
     FM241200 05015G25KT P6SM VCSH SCT030 BKN060
     FM242000 01015G25KT P6SM SCT030 BKN120=

USA.gov is the U.S. government's official web portal to all federal, state and local government web resources and services.